Terminal Aerodrome Forecast
Issued by NWS Atlanta, GA

Home | Current Version | Previous Version | Text Only | Print | Product List | Glossary On
Versions: 1 2 3 4 5 6 7 8 9 10 11 12 13 14 15
000
FTUS42 KFFC 021122
TAFMCN
TAF
KMCN 021122Z 0212/0312 22003KT P6SM BKN110
     FM021500 22005KT P6SM SCT110
     FM021800 21008KT P6SM VCSH SCT040
     FM022000 23006KT 4SM -TSRA BR BKN025CB
     FM030300 23006KT P6SM VCSH BKN025
     FM030500 00000KT P6SM BKN025=

USA.gov is the U.S. government's official web portal to all federal, state and local government web resources and services.